Time;durP1;ratioP1;P1;durP2;ratioP2;P2;SDS_P1;SDS_P2;PMS_P1;PMS_P2;Temp;Humidity;BMP_temperature;BMP_pressure;BME280_temperature;BME280_humidity;BME280_pressure;Samples;Min_cycle;Max_cycle;Signal;HPM_P1;HPM_P2
2022/07/12 00:00:40;;;;;;;3.50;3.23;;;17.00;99.90;;;;;;5002976;28;20455;-76
2022/07/12 00:03:06;;;;;;;2.97;2.77;;;17.00;99.90;;;;;;5005357;28;20846;-76
2022/07/12 00:05:33;;;;;;;4.17;3.87;;;17.00;99.90;;;;;;5012039;28;20448;-76
2022/07/12 00:07:59;;;;;;;3.30;3.10;;;17.00;99.90;;;;;;5010073;28;20485;-76
2022/07/12 00:10:27;;;;;;;3.50;3.20;;;17.00;99.90;;;;;;5004102;28;20452;-75
2022/07/12 00:12:55;;;;;;;3.50;3.17;;;17.00;99.90;;;;;;4996169;28;20422;-75
2022/07/12 00:15:21;;;;;;;4.83;3.30;;;17.00;99.90;;;;;;4998216;28;20464;-76
2022/07/12 00:17:48;;;;;;;3.23;3.07;;;17.00;99.90;;;;;;4994157;28;20434;-76
2022/07/12 00:20:15;;;;;;;4.03;3.27;;;17.00;99.90;;;;;;5003323;28;20454;-75
2022/07/12 00:22:41;;;;;;;3.20;3.00;;;16.90;99.90;;;;;;5012061;28;20462;-75
2022/07/12 00:25:09;;;;;;;3.57;3.37;;;16.90;99.90;;;;;;5002736;28;21047;-75
2022/07/12 00:27:37;;;;;;;3.60;3.40;;;16.80;99.90;;;;;;4994547;28;20481;-76
2022/07/12 00:30:05;;;;;;;4.00;3.70;;;16.70;99.90;;;;;;4997126;28;20441;-75
2022/07/12 00:32:31;;;;;;;3.80;3.43;;;16.60;99.90;;;;;;4997938;28;20425;-75
2022/07/12 00:34:58;;;;;;;9.77;3.50;;;16.60;99.90;;;;;;5005242;28;20467;-75
2022/07/12 00:37:25;;;;;;;3.50;3.20;;;16.60;99.90;;;;;;5008223;28;20460;-75
2022/07/12 00:39:52;;;;;;;4.90;3.20;;;16.60;99.90;;;;;;5004880;28;20429;-75
2022/07/12 00:42:18;;;;;;;4.40;4.07;;;16.60;99.90;;;;;;4996067;28;20426;-76
2022/07/12 00:44:46;;;;;;;4.33;3.93;;;16.60;99.90;;;;;;5007443;28;20660;-76
2022/07/12 00:47:26;;;;;;;4.40;4.00;;;16.60;99.90;;;;;;5000059;28;20476;-76
2022/07/12 00:49:53;;;;;;;5.40;3.30;;;16.50;99.90;;;;;;4996359;28;20457;-76
2022/07/12 00:52:20;;;;;;;5.23;3.80;;;16.50;99.90;;;;;;4995106;28;20453;-76
2022/07/12 00:54:47;;;;;;;4.60;4.00;;;16.40;99.90;;;;;;5000320;28;20467;-76
2022/07/12 00:57:13;;;;;;;4.93;4.07;;;16.40;99.90;;;;;;5004863;28;20460;-75
2022/07/12 00:59:40;;;;;;;4.27;3.90;;;16.30;99.90;;;;;;5001964;28;20429;-76
2022/07/12 01:02:08;;;;;;;6.20;4.40;;;16.30;99.90;;;;;;5002793;28;20484;-75
2022/07/12 01:04:36;;;;;;;4.30;4.00;;;16.20;99.90;;;;;;4994801;28;20422;-76
2022/07/12 01:07:04;;;;;;;5.03;4.00;;;16.20;99.90;;;;;;4993864;28;20492;-76
2022/07/12 01:09:31;;;;;;;8.50;4.13;;;16.10;99.90;;;;;;5000411;28;21011;-75
2022/07/12 01:11:58;;;;;;;5.87;4.33;;;16.10;99.90;;;;;;4999702;28;20449;-76
2022/07/12 01:14:25;;;;;;;4.30;3.90;;;16.00;99.90;;;;;;5002018;28;20465;-75
2022/07/12 01:16:52;;;;;;;4.67;3.57;;;15.90;99.90;;;;;;5004369;28;20504;-75
2022/07/12 01:19:21;;;;;;;6.60;4.17;;;15.90;99.90;;;;;;4994656;28;20454;-76
2022/07/12 01:21:49;;;;;;;4.90;4.50;;;15.80;99.90;;;;;;4993124;28;20455;-76
2022/07/12 01:24:19;;;;;;;4.27;3.63;;;15.80;99.90;;;;;;4992985;28;20427;-75
2022/07/12 01:26:46;;;;;;;4.60;4.20;;;15.80;99.90;;;;;;4994575;28;20500;-76
2022/07/12 01:29:13;;;;;;;4.70;3.60;;;15.70;99.90;;;;;;4995006;28;20922;-76
2022/07/12 01:31:40;;;;;;;4.13;3.80;;;15.70;99.90;;;;;;5006272;28;20831;-76
2022/07/12 01:34:07;;;;;;;4.90;4.60;;;15.70;99.90;;;;;;5006432;28;20450;-75
2022/07/12 01:36:34;;;;;;;4.10;3.70;;;15.70;99.90;;;;;;5010255;28;20977;-75
2022/07/12 01:39:01;;;;;;;4.33;3.93;;;15.60;99.90;;;;;;5001772;28;20572;-75
2022/07/12 01:41:29;;;;;;;4.37;3.97;;;15.60;99.90;;;;;;4992797;28;20447;-75
2022/07/12 01:43:56;;;;;;;4.93;4.07;;;15.60;99.90;;;;;;4996731;28;20455;-75
2022/07/12 01:46:22;;;;;;;9.43;4.30;;;15.50;99.90;;;;;;5007595;28;20444;-75
2022/07/12 01:48:49;;;;;;;4.30;4.00;;;15.50;99.90;;;;;;4996015;28;20451;-75
2022/07/12 01:51:16;;;;;;;4.53;4.23;;;15.50;99.90;;;;;;5002217;28;20526;-75
2022/07/12 01:53:43;;;;;;;5.50;4.13;;;15.40;99.90;;;;;;5006400;28;20484;-75
2022/07/12 01:56:09;;;;;;;4.30;3.90;;;15.40;99.90;;;;;;4998918;28;20450;-75
2022/07/12 01:58:38;;;;;;;3.60;3.30;;;15.40;99.90;;;;;;4994583;28;20459;-75
2022/07/12 02:01:05;;;;;;;4.10;3.80;;;15.30;99.90;;;;;;4992232;28;20451;-75
2022/07/12 02:03:36;;;;;;;3.70;3.40;;;15.30;99.90;;;;;;4999497;28;20454;-75
2022/07/12 02:06:03;;;;;;;4.10;3.80;;;15.30;99.90;;;;;;4998503;28;20510;-75
2022/07/12 02:08:30;;;;;;;4.00;3.70;;;15.20;99.90;;;;;;5008063;28;20458;-75
2022/07/12 02:10:57;;;;;;;4.37;4.07;;;15.20;99.90;;;;;;4999292;28;20537;-75
2022/07/12 02:13:23;;;;;;;4.10;3.80;;;15.10;99.90;;;;;;5006269;28;20420;-75
2022/07/12 02:15:52;;;;;;;4.50;4.10;;;15.10;99.90;;;;;;4996210;28;20500;-75
2022/07/12 02:18:18;;;;;;;4.80;3.83;;;15.10;99.90;;;;;;4991434;28;20455;-75
2022/07/12 02:20:45;;;;;;;3.70;3.40;;;15.00;99.90;;;;;;4998884;28;20453;-75
2022/07/12 02:23:11;;;;;;;3.90;3.47;;;14.90;99.90;;;;;;5009926;28;20454;-75
2022/07/12 02:25:38;;;;;;;6.70;3.60;;;14.80;99.90;;;;;;5001306;28;21054;-75
2022/07/12 02:28:05;;;;;;;4.30;3.90;;;14.80;99.90;;;;;;4996204;28;20437;-75
2022/07/12 02:30:32;;;;;;;4.80;4.40;;;14.80;99.90;;;;;;4998273;28;20422;-75
2022/07/12 02:33:00;;;;;;;6.13;3.77;;;14.70;99.90;;;;;;4991414;28;20458;-76
2022/07/12 02:35:26;;;;;;;3.50;3.30;;;14.70;99.90;;;;;;4995791;28;21070;-75
2022/07/12 02:37:53;;;;;;;4.27;3.97;;;14.60;99.90;;;;;;4999862;28;20962;-75
2022/07/12 02:43:04;;;;;;;6.23;3.77;;;14.60;99.90;;;;;;5000102;28;20409;-75
2022/07/12 02:45:30;;;;;;;3.43;3.23;;;14.70;99.90;;;;;;5001975;28;20444;-75
2022/07/12 02:47:57;;;;;;;4.00;3.60;;;14.70;99.90;;;;;;5004469;28;20929;-75
2022/07/12 02:50:25;;;;;;;5.10;3.70;;;14.70;99.90;;;;;;5004773;28;20429;-75
2022/07/12 02:52:52;;;;;;;3.43;3.23;;;14.70;99.90;;;;;;5000684;28;20544;-75
2022/07/12 02:55:18;;;;;;;5.17;4.10;;;14.60;99.90;;;;;;5009894;28;20794;-75
2022/07/12 02:57:45;;;;;;;4.30;4.00;;;14.60;99.90;;;;;;5000031;28;21095;-75
2022/07/12 03:00:13;;;;;;;4.40;4.00;;;14.60;99.90;;;;;;4999862;28;20458;-75
2022/07/12 03:02:39;;;;;;;3.90;3.53;;;14.50;99.90;;;;;;5004379;28;20998;-75
2022/07/12 03:05:07;;;;;;;9.80;4.20;;;14.50;99.90;;;;;;4991186;28;20451;-75
2022/07/12 03:07:35;;;;;;;4.47;4.17;;;14.50;99.90;;;;;;4992110;28;20455;-75
2022/07/12 03:10:02;;;;;;;4.83;3.80;;;14.50;99.90;;;;;;4997871;28;20462;-75
2022/07/12 03:12:29;;;;;;;4.10;3.70;;;14.50;99.90;;;;;;4998706;28;20539;-75
2022/07/12 03:14:55;;;;;;;6.00;3.80;;;14.40;99.90;;;;;;4993815;28;21023;-75
2022/07/12 03:17:22;;;;;;;4.23;3.93;;;14.40;99.90;;;;;;4995604;28;20574;-75
2022/07/12 03:19:49;;;;;;;3.60;3.40;;;14.40;99.90;;;;;;5000208;28;20450;-75
2022/07/12 03:22:16;;;;;;;4.20;3.87;;;14.40;99.90;;;;;;5008343;28;20846;-75
2022/07/12 03:24:43;;;;;;;4.33;4.03;;;14.40;99.90;;;;;;5001736;28;20521;-75
2022/07/12 03:27:10;;;;;;;3.60;3.40;;;14.40;99.90;;;;;;4997343;28;20453;-75
2022/07/12 03:29:37;;;;;;;4.60;4.10;;;14.40;99.90;;;;;;5000453;28;20505;-75
2022/07/12 03:32:05;;;;;;;7.53;3.93;;;14.40;99.90;;;;;;5005972;28;20482;-75
2022/07/12 03:34:32;;;;;;;4.67;4.27;;;14.40;99.90;;;;;;5007607;28;20460;-75
2022/07/12 03:36:59;;;;;;;4.30;3.90;;;14.30;99.90;;;;;;5004119;28;20960;-75
2022/07/12 03:39:26;;;;;;;4.80;4.00;;;14.30;99.90;;;;;;5007840;28;20453;-75
2022/07/12 03:41:54;;;;;;;4.50;3.93;;;14.30;99.90;;;;;;4994368;28;20494;-75
2022/07/12 03:44:21;;;;;;;3.60;3.40;;;14.30;99.90;;;;;;5003008;28;20425;-75
2022/07/12 03:46:48;;;;;;;4.50;4.10;;;14.30;99.90;;;;;;4997340;28;20742;-75
2022/07/12 03:49:15;;;;;;;5.23;3.93;;;14.30;99.90;;;;;;4994088;28;20452;-75
2022/07/12 03:51:42;;;;;;;4.13;3.83;;;14.20;99.90;;;;;;5003357;28;20497;-75
2022/07/12 03:54:08;;;;;;;4.30;3.90;;;14.30;99.90;;;;;;5011042;28;20843;-75
2022/07/12 03:59:22;;;;;;;4.03;3.43;;;14.30;99.90;;;;;;4994484;28;20454;-77
2022/07/12 04:01:48;;;;;;;4.20;3.80;;;14.30;99.90;;;;;;4999810;28;20454;-76
2022/07/12 04:04:15;;;;;;;4.30;3.90;;;14.20;99.90;;;;;;4997621;28;20454;-76
2022/07/12 04:06:42;;;;;;;4.27;3.87;;;14.30;99.90;;;;;;4994420;28;20525;-76
2022/07/12 04:09:08;;;;;;;4.13;3.83;;;14.30;99.90;;;;;;5007341;28;20883;-75
2022/07/12 04:11:35;;;;;;;4.87;3.67;;;14.30;99.90;;;;;;5008003;28;20509;-75
2022/07/12 04:14:02;;;;;;;7.87;3.90;;;14.30;99.90;;;;;;5009773;28;20433;-75
2022/07/12 04:16:30;;;;;;;7.43;3.90;;;14.30;99.90;;;;;;5003156;28;20990;-75
2022/07/12 04:18:57;;;;;;;4.87;4.37;;;14.20;99.90;;;;;;5001031;28;20970;-75
2022/07/12 04:21:24;;;;;;;7.23;4.00;;;14.20;99.90;;;;;;5003377;28;20459;-76
2022/07/12 04:23:51;;;;;;;3.87;3.53;;;14.30;99.90;;;;;;5007792;28;20484;-75
2022/07/12 04:26:17;;;;;;;4.60;4.20;;;14.30;99.90;;;;;;5008887;28;20489;-75
2022/07/12 04:28:44;;;;;;;4.10;3.80;;;14.30;99.90;;;;;;4995441;28;21080;-75
2022/07/12 04:31:11;;;;;;;5.17;4.13;;;14.30;99.90;;;;;;4994061;28;20949;-74
2022/07/12 04:33:39;;;;;;;5.97;4.30;;;14.30;99.90;;;;;;5007101;28;20876;-74
2022/07/12 04:36:06;;;;;;;21.47;4.80;;;14.40;99.90;;;;;;4996999;28;20538;-76
2022/07/12 04:38:32;;;;;;;4.43;4.03;;;14.40;99.90;;;;;;4994986;28;20459;-80
2022/07/12 04:40:59;;;;;;;4.33;3.90;;;14.40;99.90;;;;;;5000287;28;20506;-79
2022/07/12 04:43:26;;;;;;;5.17;4.33;;;14.40;99.90;;;;;;5005226;28;21134;-78
2022/07/12 04:45:53;;;;;;;4.20;3.80;;;14.50;99.90;;;;;;4993066;28;20479;-79
2022/07/12 04:48:20;;;;;;;4.87;3.90;;;14.50;99.90;;;;;;4997817;28;21186;-80
2022/07/12 04:50:48;;;;;;;5.43;4.40;;;14.60;99.90;;;;;;5003443;28;20529;-78
2022/07/12 04:53:14;;;;;;;5.80;5.30;;;14.70;99.90;;;;;;4993270;28;20483;-77
2022/07/12 04:55:41;;;;;;;4.50;4.20;;;14.70;99.90;;;;;;4994044;28;20530;-75
2022/07/12 04:58:07;;;;;;;6.17;4.57;;;14.80;99.90;;;;;;4993078;28;20506;-74
2022/07/12 05:00:34;;;;;;;7.67;4.20;;;14.80;99.90;;;;;;5009918;28;20447;-74
2022/07/12 05:03:01;;;;;;;5.27;4.77;;;14.90;99.90;;;;;;5000741;28;20447;-74
2022/07/12 05:05:27;;;;;;;10.87;4.40;;;15.00;99.90;;;;;;4993961;28;20471;-74
2022/07/12 05:07:55;;;;;;;5.70;4.50;;;15.10;99.90;;;;;;5001698;28;20451;-74
2022/07/12 05:10:22;;;;;;;4.53;4.07;;;15.20;99.90;;;;;;5004994;28;20437;-75
2022/07/12 05:12:48;;;;;;;4.60;4.20;;;15.40;99.90;;;;;;4997351;28;20457;-75
2022/07/12 05:15:15;;;;;;;6.53;4.17;;;15.40;99.90;;;;;;5009865;28;21092;-76
2022/07/12 05:17:42;;;;;;;4.60;4.20;;;15.60;99.90;;;;;;5002676;28;20506;-75
2022/07/12 05:20:10;;;;;;;5.73;4.73;;;15.70;99.90;;;;;;4997112;28;20438;-76
2022/07/12 05:22:36;;;;;;;5.90;4.50;;;15.90;99.90;;;;;;5005533;28;20422;-76
2022/07/12 05:25:05;;;;;;;6.87;4.47;;;16.10;99.90;;;;;;4999051;28;20441;-75
2022/07/12 05:27:32;;;;;;;5.23;4.20;;;16.20;99.90;;;;;;5006655;28;20417;-78
2022/07/12 05:29:59;;;;;;;6.13;4.40;;;16.30;99.90;;;;;;5004784;28;20881;-80
2022/07/12 05:32:25;;;;;;;4.57;4.17;;;16.40;99.90;;;;;;5009753;28;20462;-80
2022/07/12 05:34:52;;;;;;;6.60;4.23;;;16.50;99.90;;;;;;5009098;28;20490;-80
2022/07/12 05:37:19;;;;;;;5.33;4.43;;;16.60;99.90;;;;;;5017165;28;20467;-80
2022/07/12 05:39:45;;;;;;;5.23;4.77;;;16.60;99.90;;;;;;5014938;28;20426;-81
2022/07/12 05:42:13;;;;;;;5.20;4.50;;;16.70;99.90;;;;;;5017738;28;20429;-81
2022/07/12 05:44:40;;;;;;;8.03;4.30;;;16.70;99.90;;;;;;5008512;28;20449;-79
2022/07/12 05:47:07;;;;;;;5.50;5.00;;;16.70;99.90;;;;;;5001925;28;20513;-80
2022/07/12 05:49:34;;;;;;;5.30;4.80;;;16.80;99.90;;;;;;4974654;28;20458;-79
2022/07/12 05:54:44;;;;;;;4.80;4.40;;;16.90;99.90;;;;;;4974007;28;20425;-79
2022/07/12 05:57:12;;;;;;;10.50;4.30;;;17.10;99.90;;;;;;4975022;28;20504;-79
2022/07/12 05:59:39;;;;;;;4.80;4.40;;;17.30;99.90;;;;;;4975542;28;20434;-76
2022/07/12 06:02:06;;;;;;;5.30;4.80;;;17.50;99.90;;;;;;4973269;28;20522;-79
2022/07/12 06:04:32;;;;;;;5.93;4.67;;;17.70;99.90;;;;;;4973549;28;20456;-78
2022/07/12 06:06:59;;;;;;;5.33;4.27;;;18.00;99.90;;;;;;4973721;28;20509;-78
2022/07/12 06:09:26;;;;;;;8.43;4.23;;;18.00;99.90;;;;;;4973876;28;20463;-78
2022/07/12 06:11:53;;;;;;;4.87;4.33;;;18.30;99.90;;;;;;4973555;28;20456;-78
2022/07/12 06:14:21;;;;;;;10.60;6.13;;;18.50;99.90;;;;;;4973666;28;20460;-79
2022/07/12 06:16:48;;;;;;;5.20;4.80;;;18.70;99.90;;;;;;4973114;28;20885;-79
2022/07/12 06:19:14;;;;;;;5.30;4.80;;;18.70;99.90;;;;;;4977584;28;20500;-79
2022/07/12 06:21:41;;;;;;;5.10;3.93;;;19.00;99.90;;;;;;4992968;28;20481;-78
2022/07/12 06:24:07;;;;;;;4.10;3.80;;;19.20;99.90;;;;;;4992471;28;21002;-79
2022/07/12 06:26:34;;;;;;;3.90;3.60;;;19.40;99.90;;;;;;4992818;28;20498;-79
2022/07/12 06:29:01;;;;;;;4.73;4.10;;;19.60;99.90;;;;;;4992727;28;20451;-79
2022/07/12 06:31:29;;;;;;;4.40;4.00;;;19.70;99.90;;;;;;4992714;28;20517;-78
2022/07/12 06:33:56;;;;;;;6.17;5.10;;;19.90;99.90;;;;;;4992598;28;21011;-79
2022/07/12 06:36:22;;;;;;;3.83;3.37;;;20.00;99.90;;;;;;4992543;28;21009;-78
2022/07/12 06:38:49;;;;;;;4.83;3.17;;;20.10;99.90;;;;;;4992959;28;20522;-79
2022/07/12 06:41:16;;;;;;;6.03;3.93;;;20.40;99.90;;;;;;4992558;28;20931;-79
2022/07/12 06:43:42;;;;;;;4.03;3.57;;;20.50;99.90;;;;;;4992871;28;20509;-78
2022/07/12 06:46:09;;;;;;;4.60;4.17;;;20.60;99.90;;;;;;4992357;28;20912;-78
2022/07/12 06:48:37;;;;;;;4.33;3.97;;;20.70;99.90;;;;;;4992484;28;20459;-79
2022/07/12 06:51:04;;;;;;;4.60;4.20;;;20.90;99.90;;;;;;4994661;28;20818;-79
2022/07/12 06:53:30;;;;;;;3.90;3.60;;;21.10;99.90;;;;;;4996215;28;20494;-79
2022/07/12 06:55:57;;;;;;;5.40;4.60;;;21.30;99.90;;;;;;4996109;28;20474;-78
2022/07/12 06:58:24;;;;;;;4.53;4.13;;;21.40;99.90;;;;;;4996637;28;20486;-79
2022/07/12 07:00:50;;;;;;;6.50;5.43;;;21.40;99.90;;;;;;4996696;28;20459;-79
2022/07/12 07:03:17;;;;;;;5.60;4.70;;;21.40;99.90;;;;;;4996184;28;20443;-79
2022/07/12 07:05:45;;;;;;;3.97;3.67;;;21.30;99.90;;;;;;4996259;28;20475;-79
2022/07/12 07:08:12;;;;;;;5.40;4.70;;;21.40;99.90;;;;;;4996181;28;20860;-79
2022/07/12 07:10:38;;;;;;;4.30;3.87;;;21.50;99.90;;;;;;4996005;28;20878;-80
2022/07/12 07:13:05;;;;;;;4.60;4.20;;;21.70;99.90;;;;;;4996020;28;20487;-78
2022/07/12 07:15:31;;;;;;;5.83;4.10;;;21.80;99.90;;;;;;4995832;28;20983;-78
2022/07/12 07:17:58;;;;;;;4.77;4.47;;;21.80;99.90;;;;;;4996140;28;20451;-77
2022/07/12 07:20:25;;;;;;;4.17;3.87;;;21.60;99.90;;;;;;4995912;28;20474;-80
2022/07/12 07:22:53;;;;;;;3.97;3.67;;;21.70;99.90;;;;;;4995806;28;20455;-79
2022/07/12 07:25:19;;;;;;;9.50;4.43;;;21.80;99.90;;;;;;4995527;28;20533;-79
2022/07/12 07:27:46;;;;;;;4.70;4.30;;;21.90;99.90;;;;;;4996036;28;20447;-79
2022/07/12 07:32:57;;;;;;;6.13;3.93;;;21.70;99.90;;;;;;4995955;28;20487;-78
2022/07/12 07:35:24;;;;;;;4.70;4.30;;;21.40;99.90;;;;;;4995733;28;20487;-79
2022/07/12 07:37:53;;;;;;;5.30;3.90;;;21.30;99.90;;;;;;4995621;28;20463;-78
2022/07/12 07:40:19;;;;;;;5.53;4.20;;;21.10;99.90;;;;;;4995824;28;20627;-78
2022/07/12 07:42:46;;;;;;;4.23;3.83;;;21.00;99.90;;;;;;4995542;28;20478;-78
2022/07/12 07:45:13;;;;;;;3.87;3.57;;;21.10;99.90;;;;;;4995465;28;20474;-78
2022/07/12 07:47:46;;;;;;;3.90;3.63;;;21.40;99.90;;;;;;4995511;28;20447;-78
2022/07/12 07:50:12;;;;;;;4.83;3.40;;;22.00;99.90;;;;;;4995251;28;20450;-80
2022/07/12 07:52:39;;;;;;;4.20;3.90;;;22.40;99.90;;;;;;4995511;28;20486;-78
2022/07/12 07:55:08;;;;;;;7.80;3.20;;;22.50;99.90;;;;;;4995265;28;20517;-78
2022/07/12 07:57:34;;;;;;;3.63;3.33;;;22.30;99.90;;;;;;4995104;28;20455;-78
2022/07/12 08:00:01;;;;;;;7.73;3.37;;;22.00;99.90;;;;;;4995282;28;20806;-81
2022/07/12 08:02:28;;;;;;;10.67;3.40;;;21.80;99.90;;;;;;4994826;28;20514;-78
2022/07/12 08:04:54;;;;;;;3.30;3.00;;;21.70;99.90;;;;;;4994927;28;21013;-79
2022/07/12 08:07:21;;;;;;;3.43;3.13;;;21.60;99.90;;;;;;4995222;28;20483;-78
2022/07/12 08:09:48;;;;;;;3.90;3.60;;;21.80;99.90;;;;;;4995127;28;20513;-79
2022/07/12 08:12:16;;;;;;;3.53;3.33;;;22.00;99.90;;;;;;4995316;28;20455;-78
2022/07/12 08:14:42;;;;;;;3.50;3.20;;;21.90;99.90;;;;;;4994562;28;20491;-79
2022/07/12 08:17:09;;;;;;;3.43;3.23;;;22.10;99.90;;;;;;4994961;28;20895;-78
2022/07/12 08:19:36;;;;;;;5.23;2.80;;;22.10;99.90;;;;;;4994958;28;20451;-79
2022/07/12 08:22:03;;;;;;;2.80;2.60;;;22.10;99.90;;;;;;4994952;28;20459;-78
2022/07/12 08:24:30;;;;;;;3.43;2.63;;;22.10;99.90;;;;;;4994558;28;20538;-78
2022/07/12 08:26:57;;;;;;;3.20;2.47;;;22.10;99.90;;;;;;4994774;28;20475;-78
2022/07/12 08:29:25;;;;;;;2.93;2.63;;;22.30;99.90;;;;;;4994416;28;20462;-79
2022/07/12 08:31:51;;;;;;;2.80;2.60;;;22.60;99.90;;;;;;4994715;28;20455;-78
2022/07/12 08:34:18;;;;;;;2.10;2.00;;;23.10;99.90;;;;;;4994220;28;21077;-79
2022/07/12 08:36:44;;;;;;;2.77;2.20;;;23.40;99.90;;;;;;4994838;28;20529;-79
2022/07/12 08:39:11;;;;;;;6.37;2.10;;;23.40;99.90;;;;;;4994678;28;20451;-78
2022/07/12 08:41:38;;;;;;;2.60;1.87;;;23.60;99.90;;;;;;4994545;28;20451;-80
2022/07/12 08:44:05;;;;;;;1.90;1.70;;;24.10;99.90;;;;;;4994142;28;20525;-79
2022/07/12 08:46:33;;;;;;;1.40;1.30;;;24.60;99.90;;;;;;4994521;28;20471;-79
2022/07/12 08:49:06;;;;;;;1.77;1.60;;;24.90;99.90;;;;;;4994366;28;20463;-78
2022/07/12 08:51:32;;;;;;;1.70;1.60;;;24.80;99.90;;;;;;4994339;28;20455;-80
2022/07/12 08:54:06;;;;;;;3.10;1.63;;;24.80;99.90;;;;;;4993930;28;20475;-78
2022/07/12 08:56:34;;;;;;;1.83;1.73;;;25.00;99.90;;;;;;4993935;28;20502;-78
2022/07/12 08:59:14;;;;;;;1.60;1.50;;;25.10;99.90;;;;;;4994121;28;20455;-80
2022/07/12 09:01:49;;;;;;;2.80;1.83;;;25.10;99.90;;;;;;4994261;28;20822;-80
2022/07/12 09:04:17;;;;;;;2.23;1.50;;;24.90;99.90;;;;;;4993779;28;20454;-79
2022/07/12 09:06:44;;;;;;;4.80;1.47;;;24.60;99.90;;;;;;4994224;28;20607;-79
2022/07/12 09:09:11;;;;;;;1.93;1.20;;;24.30;99.90;;;;;;4994036;28;20451;-78
2022/07/12 09:11:39;;;;;;;5.07;1.33;;;24.00;99.90;;;;;;4993961;28;20958;-78
2022/07/12 09:14:07;;;;;;;9.33;1.50;;;23.90;99.90;;;;;;4992661;28;20517;-79
2022/07/12 09:16:35;;;;;;;1.47;1.37;;;24.20;99.90;;;;;;4993974;28;20511;-80
2022/07/12 09:19:17;;;;;;;1.30;1.20;;;24.50;99.90;;;;;;4993668;28;20463;-78
2022/07/12 09:21:49;;;;;;;1.60;1.40;;;24.70;99.90;;;;;;4993956;28;20470;-78
2022/07/12 09:24:16;;;;;;;1.70;1.30;;;25.10;99.90;;;;;;4993373;28;20547;-78
2022/07/12 09:26:44;;;;;;;1.93;1.20;;;25.40;99.90;;;;;;4993655;28;20472;-79
2022/07/12 09:29:13;;;;;;;7.40;1.77;;;25.80;99.90;;;;;;4993797;28;20830;-79
2022/07/12 09:36:06;;;;;;;1.23;1.13;;;26.00;99.90;;;;;;4994070;28;20479;-78
2022/07/12 09:37:13;;;;;;;2.67;1.23;;;26.40;99.90;;;;;;4993459;28;20543;-81
2022/07/12 09:39:41;;;;;;;1.83;1.43;;;26.60;99.90;;;;;;4993237;28;20459;-79
2022/07/12 09:42:10;;;;;;;1.63;1.30;;;26.60;99.90;;;;;;4993643;28;20472;-79
2022/07/12 09:44:36;;;;;;;1.80;1.23;;;26.80;99.90;;;;;;4993210;28;20447;-78
2022/07/12 09:47:04;;;;;;;1.73;1.00;;;26.70;99.90;;;;;;4993390;28;20467;-79
2022/07/12 09:49:33;;;;;;;3.30;1.30;;;26.70;99.90;;;;;;4993484;28;20513;-79
2022/07/12 09:52:02;;;;;;;4.40;1.10;;;26.90;99.90;;;;;;4993204;28;20537;-81
2022/07/12 09:54:29;;;;;;;1.97;1.30;;;27.10;99.90;;;;;;4993005;28;21251;-78
2022/07/12 09:56:59;;;;;;;1.80;1.40;;;27.00;99.90;;;;;;4992998;28;20827;-78
2022/07/12 09:59:29;;;;;;;1.93;0.97;;;27.20;99.90;;;;;;4993008;28;20485;-78
2022/07/12 10:01:59;;;;;;;1.20;1.10;;;27.50;99.90;;;;;;4993027;28;20505;-79
2022/07/12 10:04:30;;;;;;;1.17;1.00;;;27.80;99.90;;;;;;4992537;28;20462;-79
2022/07/12 10:06:58;;;;;;;1.43;1.30;;;27.90;99.90;;;;;;4993199;28;20475;-80
2022/07/12 10:09:26;;;;;;;1.30;1.10;;;27.70;99.90;;;;;;4993110;28;20586;-80
2022/07/12 10:11:56;;;;;;;1.20;1.10;;;27.70;99.90;;;;;;4993134;28;20490;-79
2022/07/12 10:14:23;;;;;;;7.10;1.17;;;27.70;99.90;;;;;;4992644;28;20497;-78
2022/07/12 10:16:53;;;;;;;1.20;1.10;;;27.50;99.90;;;;;;4992526;28;20471;-78
2022/07/12 10:19:27;;;;;;;1.43;1.00;;;27.50;99.90;;;;;;4992845;28;20456;-79
2022/07/12 10:21:56;;;;;;;1.30;1.00;;;27.50;99.90;;;;;;4992900;28;20455;-79
2022/07/12 10:24:51;;;;;;;1.97;1.20;;;27.70;99.90;;;;;;4992329;28;20454;-78
2022/07/12 10:27:34;;;;;;;4.13;1.10;;;27.40;99.90;;;;;;4992433;28;21116;-78
2022/07/12 10:30:15;;;;;;;3.63;1.10;;;27.40;99.90;;;;;;4992602;28;20459;-77
2022/07/12 10:32:44;;;;;;;1.20;1.00;;;27.50;99.90;;;;;;4992528;28;20459;-80
2022/07/12 10:35:15;;;;;;;1.03;0.83;;;27.60;99.90;;;;;;4992391;28;20501;-78
2022/07/12 10:37:58;;;;;;;2.50;0.87;;;28.00;99.90;;;;;;4992428;28;21010;-78
2022/07/12 10:40:27;;;;;;;1.77;1.00;;;28.10;99.90;;;;;;4992568;28;20521;-78
2022/07/12 10:44:04;;;;;;;1.10;0.90;;;28.40;99.90;;;;;;4992431;28;20450;-79
2022/07/12 10:46:16;;;;;;;1.03;0.80;;;28.90;99.90;;;;;;4992112;28;20891;-78
2022/07/12 10:48:43;;;;;;;1.03;0.93;;;29.30;99.90;;;;;;4992286;28;20803;-76
2022/07/12 10:51:19;;;;;;;1.00;0.80;;;29.70;99.90;;;;;;4992616;28;20497;-79
2022/07/12 10:53:48;;;;;;;2.93;1.00;;;29.80;99.90;;;;;;4991971;28;20482;-78
2022/07/12 10:56:18;;;;;;;1.63;1.20;;;29.50;99.90;;;;;;4991937;28;20566;-78
2022/07/12 10:58:47;;;;;;;5.47;1.13;;;29.40;99.90;;;;;;4992456;28;20506;-78
2022/07/12 11:01:16;;;;;;;2.17;1.00;;;29.40;99.90;;;;;;4992429;28;20459;-79
2022/07/12 11:03:45;;;;;;;2.63;1.00;;;29.40;99.90;;;;;;4992070;28;20502;-78
2022/07/12 11:06:13;;;;;;;3.43;1.00;;;29.50;99.90;;;;;;4992285;28;20512;-79
2022/07/12 11:08:55;;;;;;;2.57;1.10;;;29.80;99.90;;;;;;4992110;28;20451;-78
2022/07/12 11:11:24;;;;;;;1.07;0.97;;;29.90;99.90;;;;;;4992333;28;20459;-78
2022/07/12 11:13:52;;;;;;;1.33;1.00;;;30.10;99.90;;;;;;4991988;28;20490;-78
2022/07/12 11:16:19;;;;;;;4.70;1.00;;;30.10;99.90;;;;;;4992081;28;20475;-78
2022/07/12 11:18:46;;;;;;;1.63;1.13;;;29.90;99.90;;;;;;4992367;28;20452;-78
2022/07/12 11:21:13;;;;;;;2.47;1.27;;;29.80;99.90;;;;;;4992213;28;20477;-77
2022/07/12 11:23:41;;;;;;;3.73;1.00;;;30.10;99.90;;;;;;4992026;28;20447;-78
2022/07/12 11:26:09;;;;;;;1.50;1.00;;;30.10;99.90;;;;;;4991873;28;20486;-78
2022/07/12 11:28:38;;;;;;;1.00;0.90;;;30.30;99.90;;;;;;4992117;28;20505;-78
2022/07/12 11:31:07;;;;;;;1.07;0.90;;;30.00;99.90;;;;;;4992270;28;20514;-78
2022/07/12 11:33:34;;;;;;;1.10;0.90;;;30.40;99.50;;;;;;4991650;28;20451;-79
2022/07/12 11:36:04;;;;;;;1.30;0.90;;;30.50;98.70;;;;;;4992472;28;20479;-79
2022/07/12 11:38:31;;;;;;;1.50;1.20;;;30.60;98.70;;;;;;4995705;28;20459;-78
2022/07/12 11:40:59;;;;;;;2.27;1.00;;;30.60;97.70;;;;;;4995419;28;20508;-79
2022/07/12 11:43:26;;;;;;;3.20;1.13;;;30.50;98.10;;;;;;4995315;28;20451;-78
2022/07/12 11:45:55;;;;;;;1.20;0.90;;;30.60;98.40;;;;;;4995216;28;20466;-79
2022/07/12 11:48:23;;;;;;;1.70;1.00;;;30.50;98.60;;;;;;4995532;28;20939;-79
2022/07/12 11:50:52;;;;;;;1.10;1.00;;;30.60;98.20;;;;;;4995607;28;20447;-79
2022/07/12 11:53:21;;;;;;;1.70;1.30;;;30.90;98.10;;;;;;4995333;28;20524;-79
2022/07/12 11:55:48;;;;;;;1.30;1.00;;;31.10;97.90;;;;;;4994986;28;21065;-77
2022/07/12 11:58:16;;;;;;;1.30;1.00;;;31.40;97.20;;;;;;4995372;28;20459;-76
2022/07/12 12:00:44;;;;;;;4.47;1.07;;;31.60;96.60;;;;;;4995182;28;20455;-76
2022/07/12 12:03:12;;;;;;;5.90;1.03;;;31.70;96.10;;;;;;4995101;28;20451;-78
2022/07/12 12:05:39;;;;;;;2.07;0.90;;;31.90;95.00;;;;;;4995152;28;20518;-76
2022/07/12 12:08:06;;;;;;;1.40;1.00;;;31.80;94.90;;;;;;4995135;28;20510;-76
2022/07/12 12:10:33;;;;;;;3.43;1.10;;;31.80;95.90;;;;;;4994768;28;20510;-77
2022/07/12 12:13:01;;;;;;;5.83;0.90;;;31.80;95.90;;;;;;4994762;28;20462;-76
2022/07/12 12:15:31;;;;;;;1.10;1.00;;;31.80;94.10;;;;;;4994653;28;20494;-76
2022/07/12 12:17:59;;;;;;;1.77;0.90;;;32.20;94.40;;;;;;4995035;28;20458;-77
2022/07/12 12:20:28;;;;;;;2.40;1.13;;;32.40;93.20;;;;;;4994818;28;20451;-77
2022/07/12 12:22:56;;;;;;;2.07;0.93;;;32.20;93.00;;;;;;4995227;28;20455;-77
2022/07/12 12:25:24;;;;;;;1.47;0.90;;;31.90;93.30;;;;;;4994473;28;20487;-79
2022/07/12 12:27:54;;;;;;;1.40;0.90;;;31.80;91.60;;;;;;4994937;28;20459;-79
2022/07/12 12:30:22;;;;;;;1.10;0.97;;;31.70;91.50;;;;;;4994865;28;20451;-78
2022/07/12 12:32:51;;;;;;;1.30;0.87;;;31.60;91.30;;;;;;4994693;28;20496;-77
2022/07/12 12:35:20;;;;;;;2.33;0.80;;;31.60;92.00;;;;;;4994280;28;20991;-79
2022/07/12 12:37:56;;;;;;;1.00;0.80;;;31.70;92.20;;;;;;4994401;28;20946;-78
2022/07/12 12:40:24;;;;;;;1.27;0.77;;;31.70;91.60;;;;;;4994501;28;20513;-77
2022/07/12 12:42:52;;;;;;;1.10;0.90;;;31.50;92.00;;;;;;4994753;28;20502;-77
2022/07/12 12:45:22;;;;;;;1.57;0.87;;;31.80;92.10;;;;;;4994195;28;20478;-77
2022/07/12 12:47:54;;;;;;;1.60;0.80;;;32.00;91.50;;;;;;4994333;28;20454;-76
2022/07/12 12:50:39;;;;;;;1.30;0.87;;;32.40;91.30;;;;;;4994118;28;20876;-78
2022/07/12 12:53:11;;;;;;;1.43;0.80;;;32.80;90.90;;;;;;4994383;28;20443;-79
2022/07/12 12:55:38;;;;;;;1.10;0.93;;;33.00;90.30;;;;;;4994163;28;20483;-78
2022/07/12 12:58:05;;;;;;;1.70;0.90;;;33.20;88.20;;;;;;4994057;28;20820;-78
2022/07/12 13:00:32;;;;;;;1.00;0.80;;;33.30;89.50;;;;;;4994384;28;20513;-78
2022/07/12 13:03:00;;;;;;;2.23;0.93;;;33.40;88.20;;;;;;4994177;28;20451;-80